Time;durP1;ratioP1;P1;durP2;ratioP2;P2;SDS_P1;SDS_P2;PMS_P1;PMS_P2;Temp;Humidity;BMP_temperature;BMP_pressure;BME280_temperature;BME280_humidity;BME280_pressure;Samples;Min_cycle;Max_cycle;Signal;HPM_P1;HPM_P2
2023/10/16 00:02:06;;;;;;;;;;;;;;;3.38;100.00;102453.84;5011629;28;19917;-76
2023/10/16 00:04:31;;;;;;;;;;;;;;;3.43;100.00;102451.41;5012210;28;20375;-76
2023/10/16 00:07:00;;;;;;;;;;;;;;;3.44;100.00;102448.00;5010859;28;19917;-76
2023/10/16 00:09:28;;;;;;;;;;;;;;;3.44;100.00;102443.72;5007360;28;19953;-76
2023/10/16 00:11:53;;;;;;;;;;;;;;;3.46;100.00;102442.03;5023299;28;20345;-76
2023/10/16 00:14:23;;;;;;;;;;;;;;;3.44;100.00;102433.41;5009801;28;19920;-76
2023/10/16 00:16:50;;;;;;;;;;;;;;;3.42;100.00;102434.19;5004101;28;19921;-76
2023/10/16 00:19:15;;;;;;;;;;;;;;;3.38;100.00;102437.50;5009490;28;19949;-76
2023/10/16 00:21:44;;;;;;;;;;;;;;;3.36;100.00;102440.00;5008599;28;19960;-75
2023/10/16 00:24:09;;;;;;;;;;;;;;;3.38;100.00;102445.22;5007469;28;19932;-76
2023/10/16 00:26:35;;;;;;;;;;;;;;;3.43;100.00;102441.97;5011613;28;20334;-76
2023/10/16 00:29:17;;;;;;;;;;;;;;;3.49;100.00;102446.44;5008150;28;20276;-76
2023/10/16 00:31:42;;;;;;;;;;;;;;;3.59;100.00;102439.84;5025371;28;19945;-76
2023/10/16 00:34:08;;;;;;;;;;;;;;;3.67;100.00;102435.81;5002268;28;20356;-76
2023/10/16 00:36:34;;;;;;;;;;;;;;;3.77;100.00;102436.97;5058224;28;20008;-76
2023/10/16 00:39:12;;;;;;;;;;;;;;;3.83;100.00;102435.47;5034146;28;20354;-76
2023/10/16 00:41:37;;;;;;;;;;;;;;;3.89;100.00;102445.06;5031281;28;20266;-76
2023/10/16 00:44:03;;;;;;;;;;;;;;;3.93;100.00;102440.06;5017477;28;20012;-76
2023/10/16 00:46:36;;;;;;;;;;;;;;;3.94;100.00;102434.06;5044399;28;19915;-76
2023/10/16 00:49:02;;;;;;;;;;;;;;;3.95;100.00;102435.78;5012480;28;19921;-76
2023/10/16 00:51:28;;;;;;;;;;;;;;;3.92;100.00;102438.31;5015418;28;20008;-75
2023/10/16 00:53:53;;;;;;;;;;;;;;;3.88;100.00;102435.56;5005070;28;20012;-76
2023/10/16 00:56:19;;;;;;;;;;;;;;;3.82;100.00;102431.09;5016504;28;19940;-76
2023/10/16 00:58:48;;;;;;;;;;;;;;;3.75;100.00;102440.38;5017479;28;19917;-76
2023/10/16 01:01:13;;;;;;;;;;;;;;;3.68;100.00;102432.41;5022797;28;19917;-76
2023/10/16 01:03:40;;;;;;;;;;;;;;;3.61;100.00;102433.94;5016537;28;19917;-75
2023/10/16 01:06:15;;;;;;;;;;;;;;;3.59;100.00;102432.13;5013752;28;19921;-76
2023/10/16 01:08:44;;;;;;;;;;;;;;;3.58;100.00;102428.66;5012110;28;19991;-76
2023/10/16 01:11:10;;;;;;;;;;;;;;;3.58;100.00;102430.38;5012733;28;19929;-76
2023/10/16 01:13:38;;;;;;;;;;;;;;;3.56;100.00;102434.59;5016062;28;19917;-76
2023/10/16 01:16:04;;;;;;;;;;;;;;;3.54;100.00;102425.97;5012762;28;19921;-76
2023/10/16 01:18:30;;;;;;;;;;;;;;;3.48;100.00;102424.94;5011922;28;19917;-76
2023/10/16 01:20:56;;;;;;;;;;;;;;;3.48;100.00;102418.91;5046527;28;19917;-76
2023/10/16 01:23:22;;;;;;;;;;;;;;;3.46;100.00;102413.69;5014262;28;19913;-76
2023/10/16 01:25:48;;;;;;;;;;;;;;;3.47;100.00;102418.03;5012777;28;20110;-76
2023/10/16 01:28:17;;;;;;;;;;;;;;;3.49;100.00;102415.50;5005885;28;19994;-76
2023/10/16 01:30:45;;;;;;;;;;;;;;;3.51;100.00;102413.84;5020332;28;20292;-75
2023/10/16 01:33:10;;;;;;;;;;;;;;;3.57;100.00;102414.03;5020997;28;19933;-76
2023/10/16 01:35:36;;;;;;;;;;;;;;;3.63;100.00;102418.47;5016538;28;20102;-76
2023/10/16 01:38:13;;;;;;;;;;;;;;;3.68;100.00;102416.94;5015960;28;20008;-76
2023/10/16 01:40:40;;;;;;;;;;;;;;;3.75;100.00;102413.69;5009180;28;19925;-76
2023/10/16 01:43:05;;;;;;;;;;;;;;;3.80;100.00;102409.56;5003518;28;20346;-76
2023/10/16 01:45:31;;;;;;;;;;;;;;;3.83;100.00;102407.06;5007647;28;20004;-76
2023/10/16 01:47:56;;;;;;;;;;;;;;;3.88;100.00;102408.06;5015338;28;19978;-76
2023/10/16 01:50:22;;;;;;;;;;;;;;;3.93;100.00;102406.50;5009349;28;19944;-76
2023/10/16 01:52:48;;;;;;;;;;;;;;;3.96;100.00;102400.56;5007679;28;19918;-76
2023/10/16 01:55:16;;;;;;;;;;;;;;;3.98;100.00;102402.34;5000905;28;20372;-76
2023/10/16 01:57:44;;;;;;;;;;;;;;;4.02;100.00;102398.13;5001971;28;20377;-76
2023/10/16 02:00:16;;;;;;;;;;;;;;;4.03;100.00;102399.03;5004715;28;19921;-76
2023/10/16 02:02:41;;;;;;;;;;;;;;;4.03;100.00;102399.03;5021579;28;19967;-76
2023/10/16 02:05:07;;;;;;;;;;;;;;;4.01;100.00;102395.53;5037458;28;19968;-76
2023/10/16 02:07:33;;;;;;;;;;;;;;;4.00;100.00;102397.22;5015834;28;19924;-76
2023/10/16 02:09:59;;;;;;;;;;;;;;;3.99;100.00;102398.94;5040121;28;19968;-76
2023/10/16 02:12:24;;;;;;;;;;;;;;;3.97;100.00;102400.59;5019813;28;19922;-76
2023/10/16 02:14:49;;;;;;;;;;;;;;;3.95;100.00;102396.22;5026757;28;19917;-76
2023/10/16 02:17:19;;;;;;;;;;;;;;;3.87;100.00;102387.41;5017885;28;20016;-76
2023/10/16 02:19:44;;;;;;;;;;;;;;;3.80;100.00;102386.34;5035472;28;19917;-76
2023/10/16 02:22:11;;;;;;;;;;;;;;;3.72;100.00;102391.25;5040839;28;19922;-76
2023/10/16 02:24:37;;;;;;;;;;;;;;;3.66;100.00;102383.38;5019149;28;20011;-76
2023/10/16 02:27:02;;;;;;;;;;;;;;;3.60;100.00;102390.06;5021081;28;19917;-76
2023/10/16 02:29:31;;;;;;;;;;;;;;;3.52;100.00;102385.50;5008112;28;20050;-76
2023/10/16 02:31:57;;;;;;;;;;;;;;;3.45;100.00;102391.31;5025996;28;20384;-76
2023/10/16 02:34:26;;;;;;;;;;;;;;;3.39;100.00;102393.69;5010624;28;19921;-76
2023/10/16 02:36:51;;;;;;;;;;;;;;;3.35;100.00;102391.00;5009724;28;19928;-76
2023/10/16 02:39:35;;;;;;;;;;;;;;;3.30;100.00;102385.69;5020418;28;19918;-76
2023/10/16 02:42:01;;;;;;;;;;;;;;;3.23;100.00;102394.06;5017322;28;19925;-76
2023/10/16 02:44:26;;;;;;;;;;;;;;;3.19;100.00;102389.63;5045764;28;19925;-76
2023/10/16 02:46:51;;;;;;;;;;;;;;;3.17;100.00;102391.28;5015789;28;19958;-76
2023/10/16 02:49:16;;;;;;;;;;;;;;;3.15;100.00;102390.38;5021314;28;19916;-76
2023/10/16 02:51:42;;;;;;;;;;;;;;;3.13;100.00;102386.88;5016651;28;20304;-76
2023/10/16 02:54:08;;;;;;;;;;;;;;;3.13;100.00;102381.72;5040032;28;19962;-76
2023/10/16 02:56:33;;;;;;;;;;;;;;;3.11;100.00;102384.25;5005564;28;19956;-76
2023/10/16 02:59:07;;;;;;;;;;;;;;;3.11;100.00;102385.97;5021612;28;19917;-76
2023/10/16 03:01:32;;;;;;;;;;;;;;;3.11;100.00;102380.81;5010122;28;19913;-76
2023/10/16 03:03:58;;;;;;;;;;;;;;;3.16;100.00;102384.38;5037490;28;19924;-76
2023/10/16 03:06:26;;;;;;;;;;;;;;;3.20;100.00;102381.94;5024004;28;19913;-76
2023/10/16 03:08:51;;;;;;;;;;;;;;;3.23;100.00;102383.75;5005244;28;19921;-76
2023/10/16 03:11:17;;;;;;;;;;;;;;;3.25;100.00;102379.53;5014823;28;19917;-76
2023/10/16 03:13:52;;;;;;;;;;;;;;;3.23;100.00;102376.00;5047054;28;20280;-76
2023/10/16 03:16:23;;;;;;;;;;;;;;;3.22;100.00;102376.84;5008680;28;20347;-76
2023/10/16 03:18:48;;;;;;;;;;;;;;;3.19;100.00;102380.19;5014205;28;19920;-76
2023/10/16 03:23:43;;;;;;;;;;;;;;;3.11;100.00;102379.09;5047964;28;19913;-76
2023/10/16 03:26:09;;;;;;;;;;;;;;;3.07;100.00;102376.34;5016571;28;19924;-76
2023/10/16 03:28:35;;;;;;;;;;;;;;;3.02;100.00;102376.22;5031713;28;20008;-76
2023/10/16 03:31:02;;;;;;;;;;;;;;;2.99;100.00;102383.84;5011604;28;19924;-76
2023/10/16 03:33:27;;;;;;;;;;;;;;;2.94;100.00;102378.56;5025867;28;19925;-76
2023/10/16 03:35:52;;;;;;;;;;;;;;;2.91;100.00;102378.47;5009942;28;19918;-76
2023/10/16 03:38:24;;;;;;;;;;;;;;;2.88;100.00;102378.38;5012911;28;19965;-76
2023/10/16 03:40:51;;;;;;;;;;;;;;;2.89;100.00;102380.09;5013420;28;20372;-76
2023/10/16 03:43:17;;;;;;;;;;;;;;;2.89;100.00;102379.22;5022724;28;19936;-76
2023/10/16 03:45:42;;;;;;;;;;;;;;;2.88;100.00;102374.88;5010884;28;20293;-76
2023/10/16 03:48:10;;;;;;;;;;;;;;;2.85;100.00;102375.69;5051978;28;19923;-76
2023/10/16 03:50:39;;;;;;;;;;;;;;;2.82;100.00;102383.31;5012132;28;19990;-76
2023/10/16 03:53:08;;;;;;;;;;;;;;;2.79;100.00;102375.47;5041839;28;20388;-76
2023/10/16 03:55:40;;;;;;;;;;;;;;;2.74;100.00;102372.72;5014937;28;19924;-76
2023/10/16 03:58:06;;;;;;;;;;;;;;;2.70;100.00;102377.75;5020708;28;19992;-76
2023/10/16 04:00:50;;;;;;;;;;;;;;;2.68;100.00;102372.56;5010154;28;20352;-76
2023/10/16 04:03:15;;;;;;;;;;;;;;;2.67;100.00;102375.94;5006851;28;19918;-76
2023/10/16 04:05:47;;;;;;;;;;;;;;;2.70;100.00;102377.75;5017755;28;20314;-76
2023/10/16 04:08:15;;;;;;;;;;;;;;;2.72;100.00;102381.25;5032155;28;19981;-76
2023/10/16 04:10:47;;;;;;;;;;;;;;;2.68;100.00;102369.97;5008388;28;20365;-76
2023/10/16 04:13:16;;;;;;;;;;;;;;;2.67;100.00;102375.06;5007881;28;19918;-76
2023/10/16 04:47:48;;;;;;;;;;;;;;;2.56;100.00;102343.81;5036970;28;19940;-76
2023/10/16 04:50:14;;;;;;;;;;;;;;;2.53;100.00;102349.72;5042411;28;19950;-76
2023/10/16 05:01:22;;;;;;;;;;;;;;;2.68;100.00;102327.88;5013916;28;19921;-76
2023/10/16 05:06:14;;;;;;;;;;;;;;;2.81;100.00;102337.75;5037484;28;19918;-76
2023/10/16 05:16:35;;;;;;;;;;;;;;;2.96;100.00;102324.50;5028829;28;20333;-76
2023/10/16 05:19:04;;;;;;;;;;;;;;;2.97;100.00;102332.25;5007550;28;19949;-77
2023/10/16 06:16:28;;;;;;;;;;;;;;;3.66;100.00;102323.16;5011742;28;19931;-76
2023/10/16 06:18:54;;;;;;;;;;;;;;;3.64;100.00;102324.81;5008816;28;20284;-76
2023/10/16 06:21:19;;;;;;;;;;;;;;;3.61;100.00;102323.03;5010969;28;19919;-77
2023/10/16 06:23:48;;;;;;;;;;;;;;;3.55;100.00;102327.13;5009067;28;20353;-77
2023/10/16 06:26:16;;;;;;;;;;;;;;;3.50;100.00;102320.16;5013053;28;19925;-76
2023/10/16 06:28:47;;;;;;;;;;;;;;;3.46;100.00;102320.88;5086647;28;20031;-77
2023/10/16 06:31:14;;;;;;;;;;;;;;;3.44;100.00;102316.50;5040549;28;19921;-76
2023/10/16 06:33:41;;;;;;;;;;;;;;;3.42;100.00;102321.63;5017103;28;20360;-76
2023/10/16 06:36:06;;;;;;;;;;;;;;;3.42;100.00;102334.50;5015362;28;19947;-76
2023/10/16 06:38:31;;;;;;;;;;;;;;;3.41;100.00;102324.16;5013562;28;19921;-76
2023/10/16 06:40:57;;;;;;;;;;;;;;;3.43;100.00;102318.22;5036473;28;19917;-76
2023/10/16 06:43:25;;;;;;;;;;;;;;;3.42;100.00;102311.31;5013605;28;20403;-77
2023/10/16 06:45:58;;;;;;;;;;;;;;;3.44;100.00;102314.81;5006566;28;20333;-77
2023/10/16 06:48:27;;;;;;;;;;;;;;;3.45;100.00;102318.25;5032450;28;20385;-76
2023/10/16 06:50:53;;;;;;;;;;;;;;;3.46;100.00;102317.41;5013067;28;19917;-76
2023/10/16 06:53:19;;;;;;;;;;;;;;;3.48;100.00;102326.94;5013225;28;20283;-76
2023/10/16 06:55:45;;;;;;;;;;;;;;;3.49;100.00;102313.22;5019573;28;19917;-77
2023/10/16 06:58:10;;;;;;;;;;;;;;;3.52;100.00;102326.19;5019555;28;20010;-76
2023/10/16 07:00:38;;;;;;;;;;;;;;;3.58;100.00;102332.38;5039719;28;19923;-76
2023/10/16 07:03:09;;;;;;;;;;;;;;;3.60;100.00;102333.31;5021970;28;19979;-76
2023/10/16 07:05:43;;;;;;;;;;;;;;;3.62;100.00;102331.63;5041605;28;20003;-76
2023/10/16 07:08:18;;;;;;;;;;;;;;;3.63;100.00;102334.28;5017192;28;20448;-76
2023/10/16 07:10:48;;;;;;;;;;;;;;;3.65;100.00;102334.31;5040101;28;19994;-76
2023/10/16 07:13:14;;;;;;;;;;;;;;;3.65;100.00;102334.31;5019417;28;19917;-76
2023/10/16 07:15:39;;;;;;;;;;;;;;;3.67;100.00;102335.22;5017662;28;20007;-76
2023/10/16 07:18:04;;;;;;;;;;;;;;;3.68;100.00;102334.41;5021263;28;19924;-76
2023/10/16 07:20:53;;;;;;;;;;;;;;;3.69;100.00;102333.56;5011586;28;19917;-76
2023/10/16 07:23:20;;;;;;;;;;;;;;;3.73;100.00;102340.56;5016249;28;19921;-76
2023/10/16 07:25:56;;;;;;;;;;;;;;;3.77;100.00;102338.94;5030222;28;19924;-77
2023/10/16 07:28:21;;;;;;;;;;;;;;;3.79;100.00;102342.44;5012569;28;20348;-76
2023/10/16 07:30:46;;;;;;;;;;;;;;;3.81;100.00;102339.06;5014798;28;19917;-76
2023/10/16 07:33:15;;;;;;;;;;;;;;;3.84;100.00;102331.41;5007222;28;19925;-77
2023/10/16 07:35:44;;;;;;;;;;;;;;;3.89;100.00;102339.28;5013327;28;20433;-77
2023/10/16 07:38:10;;;;;;;;;;;;;;;3.95;100.00;102330.00;5046051;28;19923;-77
2023/10/16 07:40:37;;;;;;;;;;;;;;;4.05;100.00;102332.84;5024561;28;19919;-77
2023/10/16 07:43:03;;;;;;;;;;;;;;;4.13;100.00;102333.94;5000821;28;19940;-76
2023/10/16 07:45:32;;;;;;;;;;;;;;;4.22;100.00;102329.03;5040251;28;20378;-78
2023/10/16 07:48:01;;;;;;;;;;;;;;;4.29;100.00;102325.75;5032215;28;19925;-77
2023/10/16 07:50:27;;;;;;;;;;;;;;;4.38;100.00;102326.00;5017990;28;19913;-76
2023/10/16 07:52:52;;;;;;;;;;;;;;;4.42;100.00;102316.63;5005373;28;20300;-76
2023/10/16 07:55:18;;;;;;;;;;;;;;;4.44;100.00;102326.13;5017286;28;19924;-76
2023/10/16 07:57:44;;;;;;;;;;;;;;;4.50;100.00;102325.41;5030857;28;19918;-76
2023/10/16 08:00:14;;;;;;;;;;;;;;;4.58;100.00;102330.81;5019442;28;19928;-77
2023/10/16 08:02:44;;;;;;;;;;;;;;;4.63;100.00;102332.63;5015174;28;19917;-77
2023/10/16 08:05:15;;;;;;;;;;;;;;;4.69;100.00;102329.34;5025825;28;19922;-76
2023/10/16 08:07:46;;;;;;;;;;;;;;;4.76;100.00;102322.59;5019283;28;19969;-76
2023/10/16 08:12:55;;;;;;;;;;;;;;;4.87;100.00;102329.78;5018479;28;19924;-76
2023/10/16 08:15:21;;;;;;;;;;;;;;;4.93;100.00;102324.75;5040256;28;19918;-77
2023/10/16 08:17:47;;;;;;;;;;;;;;;5.04;100.00;102324.16;5011783;28;19920;-76
2023/10/16 08:20:17;;;;;;;;;;;;;;;5.16;100.00;102332.16;5034600;28;19917;-76
2023/10/16 08:22:44;;;;;;;;;;;;;;;5.24;100.00;102330.63;5018860;28;19974;-76
2023/10/16 08:25:20;;;;;;;;;;;;;;;5.26;100.00;102331.53;5043394;28;20433;-76
2023/10/16 08:27:48;;;;;;;;;;;;;;;5.27;100.00;102333.28;5005266;28;19921;-77
2023/10/16 08:30:32;;;;;;;;;;;;;;;5.33;100.00;102327.34;5010115;28;19948;-77
2023/10/16 08:33:06;;;;;;;;;;;;;;;5.38;100.00;102329.22;5004833;28;19952;-77
2023/10/16 08:35:38;;;;;;;;;;;;;;;5.42;100.00;102327.56;5015831;28;19967;-77
2023/10/16 08:38:10;;;;;;;;;;;;;;;5.49;100.00;102325.97;5015138;28;20003;-77
2023/10/16 08:40:36;;;;;;;;;;;;;;;5.55;100.00;102323.53;5015477;28;19931;-76
2023/10/16 08:43:03;;;;;;;;;;;;;;;5.58;100.00;102328.75;5012067;28;20015;-76
2023/10/16 08:45:32;;;;;;;;;;;;;;;5.65;100.00;102317.69;5007046;28;19913;-76
2023/10/16 08:47:58;;;;;;;;;;;;;;;5.73;100.00;102320.47;5018362;28;20004;-76
2023/10/16 08:50:40;;;;;;;;;;;;;;;5.85;100.00;102334.50;5011391;28;21310;-76
2023/10/16 08:53:05;;;;;;;;;;;;;;;5.98;100.00;102327.00;5008739;28;19925;-76
2023/10/16 08:55:31;;;;;;;;;;;;;;;6.09;100.00;102322.91;5009876;28;19922;-76
2023/10/16 08:57:57;;;;;;;;;;;;;;;6.21;100.00;102337.78;5000606;28;19959;-76
2023/10/16 09:00:23;;;;;;;;;;;;;;;6.32;100.00;102331.09;5010093;28;19969;-76
2023/10/16 09:02:51;;;;;;;;;;;;;;;6.46;100.00;102329.63;5038626;28;20004;-76
2023/10/16 09:05:16;;;;;;;;;;;;;;;6.65;100.00;102333.38;5004233;28;19970;-75
2023/10/16 09:07:42;;;;;;;;;;;;;;;6.83;100.00;102330.22;5012599;28;19978;-76
2023/10/16 09:10:10;;;;;;;;;;;;;;;6.97;100.00;102327.84;5039354;28;19918;-76
2023/10/16 09:12:55;;;;;;;;;;;;;;;7.11;100.00;102326.31;5012397;28;19917;-76
2023/10/16 09:15:24;;;;;;;;;;;;;;;7.21;100.00;102333.38;5030231;28;19924;-76
2023/10/16 09:17:51;;;;;;;;;;;;;;;7.27;100.00;102327.41;5070214;28;19923;-76
2023/10/16 09:20:19;;;;;;;;;;;;;;;7.32;100.00;102327.47;5019957;28;19921;-76
2023/10/16 09:22:48;;;;;;;;;;;;;;;7.39;100.00;102327.59;5005993;28;19917;-76
2023/10/16 09:25:15;;;;;;;;;;;;;;;7.41;100.00;102325.88;5014038;28;19918;-76
2023/10/16 09:27:49;;;;;;;;;;;;;;;7.49;100.00;102323.41;5042220;28;19917;-76
2023/10/16 09:30:17;;;;;;;;;;;;;;;7.58;100.00;102330.41;5007442;28;20273;-77
2023/10/16 09:32:43;;;;;;;;;;;;;;;7.65;100.00;102320.16;5015240;28;19940;-77
2023/10/16 09:35:12;;;;;;;;;;;;;;;7.71;100.00;102330.56;5031505;28;20659;-77
2023/10/16 09:37:38;;;;;;;;;;;;;;;7.79;100.00;102327.22;5003053;28;19943;-77
2023/10/16 09:40:05;;;;;;;;;;;;;;;7.85;100.00;102328.16;5004338;28;19917;-77
2023/10/16 09:42:34;;;;;;;;;;;;;;;7.93;100.00;102323.91;5031837;28;19921;-77
2023/10/16 09:44:59;;;;;;;;;;;;;;;8.04;100.00;102326.63;5011229;28;19917;-77
2023/10/16 09:47:30;;;;;;;;;;;;;;;8.16;100.00;102329.34;5031508;28;20284;-77
2023/10/16 09:49:58;;;;;;;;;;;;;;;8.26;100.00;102329.44;5037691;28;19921;-77
2023/10/16 09:52:23;;;;;;;;;;;;;;;8.32;100.00;102324.31;5063092;28;19933;-77
2023/10/16 09:54:48;;;;;;;;;;;;;;;8.34;100.00;102326.09;5002211;28;20258;-77
2023/10/16 09:57:18;;;;;;;;;;;;;;;8.42;100.00;102326.19;5017260;28;19917;-77
2023/10/16 09:59:43;;;;;;;;;;;;;;;8.43;100.00;102326.19;5013491;28;19953;-77
2023/10/16 10:02:25;;;;;;;;;;;;;;;8.45;100.00;102328.81;5011203;28;20042;-77
2023/10/16 10:05:03;;;;;;;;;;;;;;;8.51;100.00;102320.19;5018057;28;19932;-77
2023/10/16 10:07:37;;;;;;;;;;;;;;;8.58;100.00;102316.78;5003636;28;19922;-77
2023/10/16 10:12:50;;;;;;;;;;;;;;;8.74;100.00;102320.38;5004691;28;19935;-77
2023/10/16 10:15:18;;;;;;;;;;;;;;;8.78;100.00;102315.22;5040119;28;19918;-77
2023/10/16 10:17:46;;;;;;;;;;;;;;;8.87;100.00;102311.81;5005345;28;19917;-77
2023/10/16 10:20:23;;;;;;;;;;;;;;;8.97;100.00;102305.81;5005890;28;19924;-77
2023/10/16 10:22:49;;;;;;;;;;;;;;;9.05;100.00;102306.72;5006030;28;19917;-77
2023/10/16 10:25:24;;;;;;;;;;;;;;;9.10;100.00;102312.84;5043330;28;19917;-78
2023/10/16 10:27:50;;;;;;;;;;;;;;;9.23;100.00;102308.56;4998711;28;20438;-77
2023/10/16 10:30:27;;;;;;;;;;;;;;;9.29;100.00;102302.53;5040845;28;19915;-77
2023/10/16 10:32:55;;;;;;;;;;;;;;;9.44;100.00;102305.19;5016179;28;19996;-77
2023/10/16 10:35:22;;;;;;;;;;;;;;;9.55;100.00;102300.91;5015435;28;19979;-77
2023/10/16 10:37:48;;;;;;;;;;;;;;;9.68;100.00;102304.44;5014762;28;20273;-77
2023/10/16 10:40:24;;;;;;;;;;;;;;;9.78;100.00;102301.00;5014057;28;20079;-79
2023/10/16 10:42:54;;;;;;;;;;;;;;;9.88;100.00;102294.09;5015545;28;19955;-77
2023/10/16 10:45:46;;;;;;;;;;;;;;;9.93;100.00;102294.09;5032527;28;19916;-77
2023/10/16 10:48:11;;;;;;;;;;;;;;;9.91;100.00;102293.19;5023233;28;20000;-77
2023/10/16 10:50:40;;;;;;;;;;;;;;;9.94;100.00;102293.22;5025479;28;20001;-77
2023/10/16 10:53:15;;;;;;;;;;;;;;;9.95;100.00;102289.75;5012895;28;19921;-77
2023/10/16 10:55:56;;;;;;;;;;;;;;;9.88;100.00;102291.47;5011880;28;20012;-78
2023/10/16 10:58:25;;;;;;;;;;;;;;;9.79;100.00;102279.28;5010316;28;19971;-77
2023/10/16 11:00:50;;;;;;;;;;;;;;;9.81;100.00;102280.19;5019718;28;20012;-77
2023/10/16 11:03:41;;;;;;;;;;;;;;;9.85;100.00;102284.53;5037189;28;20006;-77
2023/10/16 11:06:15;;;;;;;;;;;;;;;9.92;100.00;102282.78;5030744;28;19920;-77
2023/10/16 11:08:41;;;;;;;;;;;;;;;10.05;100.00;102279.34;5047655;28;20385;-77
2023/10/16 11:11:10;;;;;;;;;;;;;;;10.12;100.00;102272.41;5036153;28;19924;-77
2023/10/16 11:13:43;;;;;;;;;;;;;;;10.17;100.00;102269.78;5024039;28;20379;-77
2023/10/16 11:16:08;;;;;;;;;;;;;;;10.21;100.00;102274.16;5046872;28;19923;-78
2023/10/16 11:18:37;;;;;;;;;;;;;;;10.37;100.00;102265.53;5022642;28;19913;-77
2023/10/16 11:21:04;;;;;;;;;;;;;;;10.45;100.00;102265.50;5008657;28;20057;-78
2023/10/16 11:23:32;;;;;;;;;;;;;;;10.54;100.00;102274.19;5000599;28;19928;-77
2023/10/16 11:25:58;;;;;;;;;;;;;;;10.64;100.00;102263.75;5002465;28;20284;-81
2023/10/16 11:28:36;;;;;;;;;;;;;;;10.79;100.00;102255.94;5006017;28;19924;-77
2023/10/16 11:31:04;;;;;;;;;;;;;;;10.92;100.00;102254.13;5015252;28;19917;-77
2023/10/16 11:34:00;;;;;;;;;;;;;;;11.04;100.00;102251.50;5006637;28;20061;-77
2023/10/16 11:36:27;;;;;;;;;;;;;;;11.08;100.00;102249.75;5014898;28;20279;-77
2023/10/16 11:38:53;;;;;;;;;;;;;;;10.97;100.00;102241.94;5004967;28;19924;-77
2023/10/16 11:41:19;;;;;;;;;;;;;;;10.98;100.00;102241.94;5023572;28;19917;-77
2023/10/16 11:43:51;;;;;;;;;;;;;;;11.12;100.00;102235.84;5033079;28;19917;-77
2023/10/16 11:46:28;;;;;;;;;;;;;;;11.33;100.00;102233.13;5014091;28;20395;-78
2023/10/16 11:51:58;;;;;;;;;;;;;;;11.96;100.00;102232.78;5020246;28;19961;-78
2023/10/16 11:54:23;;;;;;;;;;;;;;;12.24;100.00;102236.06;5010681;28;19924;-78
2023/10/16 11:56:55;;;;;;;;;;;;;;;12.27;100.00;102224.72;5012408;28;19918;-78
2023/10/16 11:59:21;;;;;;;;;;;;;;;12.25;100.00;102226.47;4998632;28;19920;-78
2023/10/16 12:01:50;;;;;;;;;;;;;;;12.25;100.00;102219.50;4998641;28;20433;-78
2023/10/16 12:04:16;;;;;;;;;;;;;;;12.32;100.00;102221.16;5007520;28;19924;-78
2023/10/16 12:06:44;;;;;;;;;;;;;;;12.45;100.00;102221.06;5004439;28;19974;-78
2023/10/16 12:09:13;;;;;;;;;;;;;;;12.48;100.00;102208.81;5022180;28;20488;-77
2023/10/16 12:11:38;;;;;;;;;;;;;;;12.56;100.00;102211.38;5012863;28;19918;-78
2023/10/16 12:14:07;;;;;;;;;;;;;;;12.60;100.00;102207.84;5010228;28;20011;-78
2023/10/16 12:16:34;;;;;;;;;;;;;;;12.81;100.00;102211.97;4999436;28;20035;-78
2023/10/16 12:19:00;;;;;;;;;;;;;;;12.83;100.00;102205.84;5015859;28;19917;-78
2023/10/16 12:21:28;;;;;;;;;;;;;;;12.72;100.00;102197.25;5020002;28;20442;-78
2023/10/16 12:23:53;;;;;;;;;;;;;;;12.62;100.00;102195.59;5009656;28;19923;-78
2023/10/16 12:26:19;;;;;;;;;;;;;;;12.57;100.00;102193.03;5037968;28;20009;-78
2023/10/16 12:28:44;;;;;;;;;;;;;;;12.59;100.00;102196.53;5012752;28;19917;-78
2023/10/16 12:31:09;;;;;;;;;;;;;;;12.60;100.00;102189.53;5014038;28;20433;-78
2023/10/16 12:33:37;;;;;;;;;;;;;;;12.58;100.00;102194.78;5016999;28;20645;-78
2023/10/16 12:36:07;;;;;;;;;;;;;;;12.51;100.00;102187.88;5023586;28;19921;-77
2023/10/16 12:38:33;;;;;;;;;;;;;;;12.45;100.00;102189.69;5026509;28;20376;-78
2023/10/16 12:41:00;;;;;;;;;;;;;;;12.35;100.00;102183.66;5018911;28;19924;-78
2023/10/16 12:43:27;;;;;;;;;;;;;;;12.30;100.00;102183.72;5015108;28;19917;-77
2023/10/16 12:45:52;;;;;;;;;;;;;;;12.30;100.00;102177.63;5009714;28;19921;-77
2023/10/16 12:48:17;;;;;;;;;;;;;;;12.23;100.00;102174.22;5046195;28;19921;-77
2023/10/16 12:50:47;;;;;;;;;;;;;;;12.24;100.00;102180.31;5006264;28;19961;-76
2023/10/16 12:53:12;;;;;;;;;;;;;;;12.21;100.00;102175.97;5030060;28;19926;-76
2023/10/16 12:55:37;;;;;;;;;;;;;;;12.24;100.00;102181.16;5013359;28;19917;-77
2023/10/16 12:58:04;;;;;;;;;;;;;;;12.25;100.00;102176.78;5009751;28;20475;-77
2023/10/16 13:00:30;;;;;;;;;;;;;;;12.29;100.00;102168.91;5012765;28;20003;-76
2023/10/16 13:02:58;;;;;;;;;;;;;;;12.34;100.00;102171.50;5023728;28;20384;-77
2023/10/16 13:05:24;;;;;;;;;;;;;;;12.34;100.00;102163.66;5048240;28;19958;-77
2023/10/16 13:07:50;;;;;;;;;;;;;;;12.33;100.00;102172.38;5032994;28;20005;-77
2023/10/16 13:10:26;;;;;;;;;;;;;;;12.26;100.00;102166.34;5038445;28;19918;-77
2023/10/16 13:12:51;;;;;;;;;;;;;;;12.15;100.00;102173.41;5020183;28;20429;-78
2023/10/16 13:15:24;;;;;;;;;;;;;;;12.07;100.00;102170.00;5020731;28;19918;-76
2023/10/16 13:17:50;;;;;;;;;;;;;;;12.04;100.00;102170.03;5022514;28;19916;-75
2023/10/16 13:20:17;;;;;;;;;;;;;;;12.05;100.00;102167.38;5049572;28;20288;-75
2023/10/16 13:22:44;;;;;;;;;;;;;;;12.04;100.00;102168.28;5035205;28;19917;-76
2023/10/16 13:25:12;;;;;;;;;;;;;;;12.05;100.00;102161.28;5021228;28;20327;-77
2023/10/16 13:27:37;;;;;;;;;;;;;;;12.07;100.00;102162.16;5034305;28;19928;-80
2023/10/16 13:30:05;;;;;;;;;;;;;;;12.05;100.00;102156.06;5016447;28;19922;-78
2023/10/16 13:32:30;;;;;;;;;;;;;;;11.92;100.00;102156.16;5031863;28;19918;-78
2023/10/16 13:34:57;;;;;;;;;;;;;;;11.84;100.00;102157.09;5022144;28;19968;-78
2023/10/16 13:37:23;;;;;;;;;;;;;;;11.78;100.00;102158.00;5034882;28;20307;-78
2023/10/16 13:39:48;;;;;;;;;;;;;;;11.73;100.00;102162.38;5022565;28;20325;-78
2023/10/16 13:42:14;;;;;;;;;;;;;;;11.67;100.00;102154.56;5022973;28;19918;-78
2023/10/16 13:44:40;;;;;;;;;;;;;;;11.65;100.00;102154.59;5020646;28;19917;-78
2023/10/16 13:47:06;;;;;;;;;;;;;;;11.65;100.00;102157.22;5020342;28;19917;-79
2023/10/16 13:49:32;;;;;;;;;;;;;;;11.63;100.00;102156.34;5016669;28;19932;-76
2023/10/16 13:51:58;;;;;;;;;;;;;;;11.61;100.00;102154.63;5017759;28;19917;-77
2023/10/16 13:54:23;;;;;;;;;;;;;;;11.64;100.00;102150.25;4998274;28;19917;-77
2023/10/16 13:56:49;;;;;;;;;;;;;;;11.70;100.00;102154.56;5020706;28;19928;-77
2023/10/16 13:59:18;;;;;;;;;;;;;;;11.73;100.00;102149.31;5012747;28;20019;-77
2023/10/16 14:01:43;;;;;;;;;;;;;;;11.78;100.00;102144.94;5004457;28;20016;-77
2023/10/16 14:04:15;;;;;;;;;;;;;;;11.85;100.00;102145.78;5029495;28;20028;-77
2023/10/16 14:06:41;;;;;;;;;;;;;;;11.93;100.00;102151.78;5028354;27;19999;-78
2023/10/16 14:09:11;;;;;;;;;;;;;;;11.95;100.00;102145.69;5003946;28;20441;-77
2023/10/16 14:11:38;;;;;;;;;;;;;;;12.02;100.00;102143.88;5005421;28;19926;-79
2023/10/16 14:14:10;;;;;;;;;;;;;;;12.02;100.00;102137.78;5030820;28;19921;-81
2023/10/16 14:16:35;;;;;;;;;;;;;;;12.09;100.00;102137.72;5032379;28;19917;-77
2023/10/16 14:19:06;;;;;;;;;;;;;;;12.14;100.00;102135.06;5012498;28;19958;-77
2023/10/16 14:21:31;;;;;;;;;;;;;;;12.15;100.00;102131.56;5026940;28;19960;-77
2023/10/16 14:23:56;;;;;;;;;;;;;;;12.10;100.00;102122.91;5015375;28;19983;-77
2023/10/16 14:26:21;;;;;;;;;;;;;;;12.01;100.00;102125.63;5041848;28;19923;-77
2023/10/16 14:28:51;;;;;;;;;;;;;;;11.82;100.00;102124.88;5017885;28;19962;-78
2023/10/16 14:31:20;;;;;;;;;;;;;;;11.63;100.00;102126.75;5044980;28;19917;-77
2023/10/16 14:33:46;;;;;;;;;;;;;;;11.47;100.00;102128.59;5026850;28;20456;-77
2023/10/16 14:36:16;;;;;;;;;;;;;;;11.36;100.00;102128.66;5022931;28;19992;-77